KMKC

Charles B Wheeler Downtown Airport

Kansas City, Missouri, USA
KMKC 161125Z 1612/1712 08006KT P6SM BKN040 FM162200 08009KT P6SM OVC025 FM170000 09008KT 4SM -SN OVC018 FM170200 09007KT 1SM -FZRASN OVC006 FM171000 VRB04KT 5SM BR OVC008
Issued Valid From Valid To
Feb-16 @ 11:25 UTC
(45 minutes ago)
Feb-16 @ 12:00 UTC
(10 minutes ago)
Feb-17 @ 12:00 UTC
(in 24 hours)
Feb-16 @ 12:00 to Feb-16 @ 22:00
KMKC 161125Z 1612/1712 08006KT P6SM BKN040
Wind Visibility Clouds
80° at 6 knots Greater than 6 miles
  • Broken at 4,000' AGL
From Feb-16 @ 22:00 to Feb-17 @ 00:00
FM162200 08009KT P6SM OVC025
Wind Visibility Clouds
80° at 9 knots Greater than 6 miles
  • Overcast at 2,500' AGL
From Feb-17 @ 00:00 to Feb-17 @ 02:00
FM170000 09008KT 4SM -SN OVC018
Wind Visibility Clouds Conditions
90° at 8 knots 4 miles
  • Overcast at 1,800' AGL
  • Light Snow
From Feb-17 @ 02:00 to Feb-17 @ 10:00
FM170200 09007KT 1SM -FZRASN OVC006
Wind Visibility Clouds Conditions
90° at 7 knots 1 miles
  • Overcast at 600' AGL
  • Light Freezing
  • Light Rain
  • Snow
From Feb-17 @ 10:00 to Feb-17 @ 12:00
FM171000 VRB04KT 5SM BR OVC008
Wind Visibility Clouds Conditions
Variable at 4 knots 5 miles
  • Overcast at 800' AGL
  • Mist
KMKC 161125Z 1612/1712 08006KT P6SM BKN040 FM162200 08009KT P6SM OVC025 FM170000 09008KT 4SM -SN OVC018 FM170200 09007KT 1SM -FZRASN OVC006 FM171000 VRB04KT 5SM BR OVC008
Issued Feb-16 @ 11:25 UTC
(45 minutes ago)
Valid From Feb-16 @ 12:00 UTC
(10 minutes ago)
Valid To Feb-17 @ 12:00 UTC
(in 24 hours)
Feb-16 @ 12:00 - Feb-16 @ 22:00
Wind Visibility
80° at 6 knots Greater than 6 miles
Clouds
  • Broken at 4,000' AGL
From Feb-16 @ 22:00 - Feb-17 @ 00:00
Wind Visibility
80° at 9 knots Greater than 6 miles
Clouds
  • Overcast at 2,500' AGL
From Feb-17 @ 00:00 - Feb-17 @ 02:00
Wind Visibility
90° at 8 knots 4 miles
Clouds
  • Overcast at 1,800' AGL
Conditions
  • Light Snow
From Feb-17 @ 02:00 - Feb-17 @ 10:00
Wind Visibility
90° at 7 knots 1 miles
Clouds
  • Overcast at 600' AGL
Conditions
  • Light Freezing
  • Light Rain
  • Snow
From Feb-17 @ 10:00 - Feb-17 @ 12:00
Wind Visibility
Variable at 4 knots 5 miles
Clouds
  • Overcast at 800' AGL
Conditions
  • Mist